Time;durP1;ratioP1;P1;durP2;ratioP2;P2;SDS_P1;SDS_P2;PMS_P1;PMS_P2;Temp;Humidity;BMP_temperature;BMP_pressure;BME280_temperature;BME280_humidity;BME280_pressure;Samples;Min_cycle;Max_cycle;Signal;HPM_P1;HPM_P2
2022/09/12 00:00:06;;;;;;;;;;;;;;;15.86;100.00;98077.16;1665687;85;20918;-89
2022/09/12 00:02:33;;;;;;;;;;;;;;;15.84;100.00;98069.04;1672498;84;21562;-89
2022/09/12 00:05:15;;;;;;;;;;;;;;;15.85;100.00;98072.03;1656461;85;20866;-88
2022/09/12 00:07:41;;;;;;;;;;;;;;;15.86;100.00;98081.13;1663914;84;20260;-89
2022/09/12 00:10:07;;;;;;;;;;;;;;;15.86;100.00;98081.13;1666202;85;24990;-88
2022/09/12 00:12:33;;;;;;;;;;;;;;;15.86;100.00;98085.56;1667636;85;20273;-88
2022/09/12 00:15:02;;;;;;;;;;;;;;;15.84;100.00;98092.79;1662359;85;20976;-87
2022/09/12 00:17:29;;;;;;;;;;;;;;;15.82;100.00;98088.97;1663513;85;25404;-87
2022/09/12 00:19:54;;;;;;;;;;;;;;;15.78;100.00;98088.10;1670531;84;20271;-88
2022/09/12 00:22:21;;;;;;;;;;;;;;;15.75;100.00;98088.41;1663340;84;20364;-88
2022/09/12 00:24:50;;;;;;;;;;;;;;;15.72;100.00;98092.64;1669696;84;20923;-89
2022/09/12 00:27:16;;;;;;;;;;;;;;;15.68;100.00;98094.77;1670974;84;26037;-89
2022/09/12 00:29:42;;;;;;;;;;;;;;;15.64;100.00;98091.25;1674770;85;20873;-89
2022/09/12 00:32:10;;;;;;;;;;;;;;;15.59;100.00;98094.81;1679863;85;20305;-88
2022/09/12 00:34:39;;;;;;;;;;;;;;;15.54;100.00;98091.80;1670905;85;25841;-88
2022/09/12 00:37:05;;;;;;;;;;;;;;;15.50;100.00;98088.56;1667373;85;22601;-88
2022/09/12 00:39:33;;;;;;;;;;;;;;;15.45;100.00;98089.01;1672176;85;21058;-88
2022/09/12 00:42:00;;;;;;;;;;;;;;;15.42;100.00;98091.12;1672096;85;24565;-88
2022/09/12 00:44:32;;;;;;;;;;;;;;;15.38;100.00;98092.39;1674439;85;20500;-88
2022/09/12 00:47:03;;;;;;;;;;;;;;;15.33;100.00;98087.53;1671109;85;25264;-88
2022/09/12 00:49:34;;;;;;;;;;;;;;;15.30;100.00;98089.15;1670434;85;23051;-88
2022/09/12 00:52:02;;;;;;;;;;;;;;;15.28;100.00;98084.98;1664088;85;26088;-88
2022/09/12 00:54:46;;;;;;;;;;;;;;;15.26;100.00;98094.38;1668057;85;25277;-88
2022/09/12 00:57:20;;;;;;;;;;;;;;;15.24;100.00;98092.84;1675933;84;35106;-88
2022/09/12 00:59:54;;;;;;;;;;;;;;;15.21;100.00;98086.56;1667750;85;25026;-88
2022/09/12 01:02:32;;;;;;;;;;;;;;;15.20;100.00;98086.21;1669920;85;22095;-88
2022/09/12 01:05:04;;;;;;;;;;;;;;;15.19;100.00;98088.50;1664062;85;26002;-88
2022/09/12 01:07:31;;;;;;;;;;;;;;;15.20;100.00;98083.09;1669192;84;24624;-88
2022/09/12 01:10:04;;;;;;;;;;;;;;;15.21;100.00;98085.23;1667750;85;20356;-88
2022/09/12 01:12:39;;;;;;;;;;;;;;;15.21;100.00;98079.97;1668292;85;24987;-88
2022/09/12 01:15:06;;;;;;;;;;;;;;;15.21;100.00;98078.66;1662712;85;22168;-88
2022/09/12 01:17:49;;;;;;;;;;;;;;;15.20;100.00;98076.50;1667851;84;25623;-88
2022/09/12 01:20:48;;;;;;;;;;;;;;;15.19;100.00;98079.27;1672933;84;24560;-88
2022/09/12 01:23:29;;;;;;;;;;;;;;;15.18;100.00;98080.23;1671173;83;20236;-88
2022/09/12 01:26:04;;;;;;;;;;;;;;;15.17;100.00;98080.72;1670711;83;25061;-88
2022/09/12 01:28:53;;;;;;;;;;;;;;;15.17;100.00;98087.31;1682515;84;22284;-88
2022/09/12 01:31:35;;;;;;;;;;;;;;;15.16;100.00;98083.05;1677216;84;26851;-88
2022/09/12 01:34:25;;;;;;;;;;;;;;;15.15;100.00;98084.50;1679374;84;24674;-88
2022/09/12 01:37:09;;;;;;;;;;;;;;;15.15;100.00;98085.33;1678137;84;20492;-89
2022/09/12 01:39:53;;;;;;;;;;;;;;;15.15;100.00;98087.13;1683177;83;25003;-88
2022/09/12 01:42:23;;;;;;;;;;;;;;;15.15;100.00;98086.64;1680559;83;22115;-89
2022/09/12 01:47:37;;;;;;;;;;;;;;;15.15;100.00;98081.37;1674423;84;24431;-89
2022/09/12 01:50:08;;;;;;;;;;;;;;;15.15;100.00;98084.50;1708926;82;20218;-89
2022/09/12 01:52:45;;;;;;;;;;;;;;;15.15;100.00;98076.10;1680918;83;24971;-89
2022/09/12 01:55:27;;;;;;;;;;;;;;;15.16;100.00;98079.09;1681299;84;21968;-88
2022/09/12 01:57:59;;;;;;;;;;;;;;;15.15;100.00;98076.59;1681877;84;26929;-88
2022/09/12 02:00:25;;;;;;;;;;;;;;;15.15;100.00;98077.91;1687950;84;24432;-88
2022/09/12 02:03:11;;;;;;;;;;;;;;;15.12;100.00;98075.05;1680337;84;20186;-88
2022/09/12 02:05:44;;;;;;;;;;;;;;;15.11;100.00;98076.55;1680719;84;24985;-88
2022/09/12 02:08:18;;;;;;;;;;;;;;;15.12;100.00;98076.86;1676692;84;21965;-88
2022/09/12 02:11:09;;;;;;;;;;;;;;;15.12;100.00;98075.54;1682353;83;26767;-87
2022/09/12 02:13:43;;;;;;;;;;;;;;;15.13;100.00;98080.68;1681604;84;24408;-88
2022/09/12 02:16:30;;;;;;;;;;;;;;;15.11;100.00;98076.55;1677403;84;20491;-88
2022/09/12 02:18:58;;;;;;;;;;;;;;;15.13;100.00;98078.05;1679846;84;24983;-88
2022/09/12 02:21:25;;;;;;;;;;;;;;;15.14;100.00;98078.39;1686425;84;22067;-89
2022/09/12 02:24:09;;;;;;;;;;;;;;;15.17;100.00;98083.84;1682210;83;26069;-88
2022/09/12 02:26:36;;;;;;;;;;;;;;;15.17;100.00;98083.84;1683841;84;24452;-88
2022/09/12 02:29:11;;;;;;;;;;;;;;;15.15;100.00;98081.37;1675141;84;20527;-88
2022/09/12 02:31:43;;;;;;;;;;;;;;;15.15;100.00;98077.42;1672099;84;25639;-88
2022/09/12 02:34:27;;;;;;;;;;;;;;;15.15;100.00;98082.70;1672139;84;21969;-87
2022/09/12 02:37:01;;;;;;;;;;;;;;;15.13;100.00;98083.31;1677566;84;26014;-88
2022/09/12 02:39:42;;;;;;;;;;;;;;;15.10;100.00;98078.34;1672134;84;24535;-88
2022/09/12 02:42:14;;;;;;;;;;;;;;;15.09;100.00;98080.63;1670929;84;20527;-88
2022/09/12 02:44:46;;;;;;;;;;;;;;;15.09;100.00;98077.99;1674977;84;24969;-88
2022/09/12 02:47:18;;;;;;;;;;;;;;;15.07;100.00;98079.45;1674288;84;21999;-88
2022/09/12 02:49:45;;;;;;;;;;;;;;;15.07;100.00;98078.13;1668105;84;26054;-88
2022/09/12 02:52:12;;;;;;;;;;;;;;;15.06;100.00;98077.78;1671121;84;24490;-89
2022/09/12 02:54:39;;;;;;;;;;;;;;;15.07;100.00;98078.13;1672596;84;20488;-89
2022/09/12 02:57:07;;;;;;;;;;;;;;;15.06;100.00;98082.22;1673558;84;24988;-88
2022/09/12 02:59:34;;;;;;;;;;;;;;;15.03;100.00;98083.35;1672946;84;22033;-88
2022/09/12 03:02:02;;;;;;;;;;;;;;;14.99;100.00;98085.94;1680484;84;26056;-88
2022/09/12 03:04:48;;;;;;;;;;;;;;;14.96;100.00;98082.25;1677754;84;24687;-88
2022/09/12 03:07:27;;;;;;;;;;;;;;;14.96;100.00;98084.89;1669950;84;20249;-88
2022/09/12 03:10:13;;;;;;;;;;;;;;;14.91;100.00;98088.92;1676198;85;25023;-88
2022/09/12 03:12:45;;;;;;;;;;;;;;;14.87;100.00;98088.87;1674688;85;22070;-89
2022/09/12 03:15:16;;;;;;;;;;;;;;;14.86;100.00;98089.84;1669432;84;26730;-89
2022/09/12 03:17:46;;;;;;;;;;;;;;;14.83;100.00;98082.23;1676399;85;24423;-89
2022/09/12 03:20:14;;;;;;;;;;;;;;;14.86;100.00;98085.89;1667266;85;20143;-89
2022/09/12 03:22:45;;;;;;;;;;;;;;;14.90;100.00;98083.30;1667461;85;24965;-89
2022/09/12 03:25:18;;;;;;;;;;;;;;;14.94;100.00;98086.02;1674381;84;21972;-88
2022/09/12 03:27:57;;;;;;;;;;;;;;;14.98;100.00;98079.48;1668387;84;25988;-90
2022/09/12 03:30:27;;;;;;;;;;;;;;;15.01;100.00;98079.19;1666179;85;24550;-89
2022/09/12 03:32:53;;;;;;;;;;;;;;;15.05;100.00;98080.58;1670414;84;20260;-90
2022/09/12 03:35:32;;;;;;;;;;;;;;;15.07;100.00;98081.25;1673005;85;25019;-89
2022/09/12 03:38:15;;;;;;;;;;;;;;;15.05;100.00;98087.17;1667662;84;22023;-89
2022/09/12 03:40:47;;;;;;;;;;;;;;;15.04;100.00;98087.66;1676036;84;25955;-88
2022/09/12 03:43:48;;;;;;;;;;;;;;;15.07;100.00;98090.47;1669588;84;24450;-89
2022/09/12 03:46:14;;;;;;;;;;;;;;;15.07;100.00;98088.67;1672288;85;20321;-88
2022/09/12 03:48:41;;;;;;;;;;;;;;;15.08;100.00;98090.34;1674027;84;20241;-89
2022/09/12 03:51:08;;;;;;;;;;;;;;;15.08;100.00;98086.88;1676957;84;22005;-88
2022/09/12 03:53:49;;;;;;;;;;;;;;;15.04;100.00;98087.66;1674082;84;27014;-88
2022/09/12 03:56:14;;;;;;;;;;;;;;;15.06;100.00;98087.00;1677950;84;25027;-88
2022/09/12 03:58:51;;;;;;;;;;;;;;;15.06;100.00;98090.95;1671975;85;20473;-89
2022/09/12 04:01:21;;;;;;;;;;;;;;;15.03;100.00;98094.38;1672667;84;25190;-88
2022/09/12 04:03:55;;;;;;;;;;;;;;;15.04;100.00;98098.68;1669615;84;21973;-88
2022/09/12 04:06:21;;;;;;;;;;;;;;;15.00;100.00;98099.44;1668074;85;26904;-88
2022/09/12 04:08:50;;;;;;;;;;;;;;;14.95;100.00;98100.34;1680540;84;24602;-88
2022/09/12 04:11:19;;;;;;;;;;;;;;;14.88;100.00;98106.34;1668406;84;20280;-88
2022/09/12 04:13:45;;;;;;;;;;;;;;;14.82;100.00;98101.16;1672113;85;24941;-88
2022/09/12 04:16:13;;;;;;;;;;;;;;;14.79;100.00;98104.55;1678581;85;22154;-88
2022/09/12 04:18:45;;;;;;;;;;;;;;;14.80;100.00;98105.73;1668634;84;26062;-89
2022/09/12 04:21:16;;;;;;;;;;;;;;;14.82;100.00;98104.28;1673509;84;24598;-88
2022/09/12 04:23:51;;;;;;;;;;;;;;;14.86;100.00;98105.65;1670421;84;20225;-89
2022/09/12 04:26:18;;;;;;;;;;;;;;;14.91;100.00;98099.47;1667197;84;25052;-88
2022/09/12 04:28:54;;;;;;;;;;;;;;;14.95;100.00;98101.67;1684212;84;21941;-88
2022/09/12 04:31:30;;;;;;;;;;;;;;;14.96;100.00;98101.19;1691165;84;26789;-89
2022/09/12 04:33:59;;;;;;;;;;;;;;;14.99;100.00;98099.59;1689277;83;24578;-88
2022/09/12 04:36:28;;;;;;;;;;;;;;;15.00;100.00;98099.95;1687377;83;20279;-89
2022/09/12 04:38:55;;;;;;;;;;;;;;;15.01;100.00;98101.58;1690059;84;24960;-89
2022/09/12 04:41:22;;;;;;;;;;;;;;;14.99;100.00;98093.02;1671093;85;22133;-88
2022/09/12 04:44:01;;;;;;;;;;;;;;;14.99;100.00;98099.59;1707095;83;25981;-88
2022/09/12 04:46:38;;;;;;;;;;;;;;;15.01;100.00;98101.58;1666206;85;24435;-89
2022/09/12 04:49:05;;;;;;;;;;;;;;;15.07;100.00;98093.11;1667175;85;20529;-89
2022/09/12 04:51:37;;;;;;;;;;;;;;;15.11;100.00;98101.06;1683587;84;24962;-89
2022/09/12 04:54:09;;;;;;;;;;;;;;;15.10;100.00;98102.55;1684400;84;22000;-89
2022/09/12 04:56:38;;;;;;;;;;;;;;;15.09;100.00;98108.30;1679596;85;26238;-89
2022/09/12 04:59:07;;;;;;;;;;;;;;;15.07;100.00;98113.71;1676328;85;25242;-89
2022/09/12 05:01:34;;;;;;;;;;;;;;;15.05;100.00;98114.33;1681237;84;20211;-90
2022/09/12 05:04:14;;;;;;;;;;;;;;;15.03;100.00;98118.09;1681467;85;25806;-89
2022/09/12 05:06:48;;;;;;;;;;;;;;;15.01;100.00;98119.55;1635012;86;21989;-89
2022/09/12 05:09:15;;;;;;;;;;;;;;;15.05;100.00;98125.39;1668741;85;25992;-89
2022/09/12 05:11:47;;;;;;;;;;;;;;;15.08;100.00;98125.09;1638923;85;24517;-88
2022/09/12 05:14:13;;;;;;;;;;;;;;;15.13;100.00;98122.85;1674824;85;20608;-88
2022/09/12 05:16:40;;;;;;;;;;;;;;;15.17;100.00;98132.13;1640251;86;25016;-88
2022/09/12 05:19:12;;;;;;;;;;;;;;;15.22;100.00;98127.77;1671575;84;22133;-88
2022/09/12 05:21:38;;;;;;;;;;;;;;;15.20;100.00;98138.45;1634518;86;26226;-89
2022/09/12 05:24:05;;;;;;;;;;;;;;;15.17;100.00;98138.72;1667339;85;20242;-88
2022/09/12 05:26:37;;;;;;;;;;;;;;;15.17;100.00;98143.98;1701115;83;20629;-88
2022/09/12 05:29:03;;;;;;;;;;;;;;;15.23;100.00;98146.54;1682056;83;24971;-88
2022/09/12 05:31:29;;;;;;;;;;;;;;;15.26;100.00;98149.74;1682507;84;20232;-88
2022/09/12 05:34:00;;;;;;;;;;;;;;;15.22;100.00;98152.81;1677263;84;20991;-88
2022/09/12 05:36:28;;;;;;;;;;;;;;;15.16;100.00;98158.66;1678870;84;24699;-88
2022/09/12 05:38:54;;;;;;;;;;;;;;;15.17;100.00;98161.12;1682540;84;20207;-88
2022/09/12 05:41:23;;;;;;;;;;;;;;;15.11;100.00;98157.73;1682396;84;25667;-88
2022/09/12 05:43:55;;;;;;;;;;;;;;;15.15;100.00;98163.58;1681670;84;22110;-87
2022/09/12 05:46:33;;;;;;;;;;;;;;;15.15;100.00;98160.45;1659740;85;26916;-88
2022/09/12 05:49:05;;;;;;;;;;;;;;;15.19;100.00;98159.19;1684132;84;24443;-88
2022/09/12 05:51:32;;;;;;;;;;;;;;;15.23;100.00;98159.23;1680176;84;20267;-88
2022/09/12 05:54:02;;;;;;;;;;;;;;;15.25;100.00;98162.58;1680796;84;25860;-89
2022/09/12 05:56:29;;;;;;;;;;;;;;;15.29;100.00;98162.63;1681273;83;22002;-88
2022/09/12 05:59:00;;;;;;;;;;;;;;;15.24;100.00;98162.70;1683606;84;26193;-90
2022/09/12 06:01:28;;;;;;;;;;;;;;;15.05;100.00;98165.72;1653168;85;24543;-89
2022/09/12 06:03:59;;;;;;;;;;;;;;;14.97;100.00;98159.51;1636428;86;20264;-89
2022/09/12 06:06:30;;;;;;;;;;;;;;;14.96;100.00;98165.27;1651749;86;25100;-89
2022/09/12 06:08:58;;;;;;;;;;;;;;;14.81;100.00;98165.36;1640545;85;22051;-89
2022/09/12 06:11:28;;;;;;;;;;;;;;;14.76;100.00;98173.33;1675637;84;26031;-89
2022/09/12 06:14:07;;;;;;;;;;;;;;;14.84;100.00;98167.70;1677037;84;24505;-89
2022/09/12 06:16:35;;;;;;;;;;;;;;;14.96;100.00;98163.11;1672703;84;20157;-89
2022/09/12 06:19:09;;;;;;;;;;;;;;;15.03;100.00;98166.37;1674635;84;24974;-89
2022/09/12 06:21:36;;;;;;;;;;;;;;;15.11;100.00;98166.96;1674537;84;22177;-90
2022/09/12 06:24:03;;;;;;;;;;;;;;;15.17;100.00;98163.76;1678361;84;26646;-89
2022/09/12 06:26:29;;;;;;;;;;;;;;;15.14;100.00;98170.65;1675304;84;24350;-89
2022/09/12 06:28:57;;;;;;;;;;;;;;;15.11;100.00;98171.43;1676177;84;20858;-89
2022/09/12 06:31:26;;;;;;;;;;;;;;;15.15;100.00;98172.31;1678106;84;25066;-90
2022/09/12 06:33:53;;;;;;;;;;;;;;;15.19;100.00;98175.48;1676651;84;22162;-89
2022/09/12 06:36:30;;;;;;;;;;;;;;;15.23;100.00;98170.27;1676873;84;25979;-90
2022/09/12 06:38:59;;;;;;;;;;;;;;;15.32;100.00;98168.11;1677547;84;24432;-89
2022/09/12 06:41:26;;;;;;;;;;;;;;;15.32;100.00;98170.27;1676708;84;20194;-89
2022/09/12 06:43:52;;;;;;;;;;;;;;;15.29;100.00;98173.66;1676376;85;24614;-89
2022/09/12 06:46:18;;;;;;;;;;;;;;;15.32;100.00;98174.22;1679086;84;21945;-90
2022/09/12 06:48:44;;;;;;;;;;;;;;;15.33;100.00;98173.70;1677688;84;26761;-89
2022/09/12 06:51:14;;;;;;;;;;;;;;;15.42;100.00;98179.45;1676602;84;24685;-89
2022/09/12 06:53:41;;;;;;;;;;;;;;;15.39;100.00;98177.92;1675421;84;20549;-90
2022/09/12 06:56:12;;;;;;;;;;;;;;;15.38;100.00;98186.00;1676065;84;25006;-89
2022/09/12 06:58:39;;;;;;;;;;;;;;;15.37;100.00;98179.06;1678964;84;21970;-90
2022/09/12 07:01:11;;;;;;;;;;;;;;;15.36;100.00;98185.30;1676797;84;26630;-89
2022/09/12 07:03:34;;;;;;;;;;;;;;;15.40;100.00;98181.40;1676240;84;24496;-89
2022/09/12 07:06:08;;;;;;;;;;;;;;;15.47;100.00;98188.60;1676508;84;20257;-90
2022/09/12 07:08:41;;;;;;;;;;;;;;;15.49;100.00;98187.15;1674923;84;24610;-90
2022/09/12 07:11:09;;;;;;;;;;;;;;;15.54;100.00;98190.70;1677792;84;22745;-89
2022/09/12 07:13:34;;;;;;;;;;;;;;;15.63;100.00;98185.38;1678319;84;26006;-90
2022/09/12 07:16:01;;;;;;;;;;;;;;;15.66;100.00;98195.63;1678054;84;20308;-89
2022/09/12 07:18:28;;;;;;;;;;;;;;;15.67;100.00;98195.15;1679249;84;20590;-89
2022/09/12 07:20:54;;;;;;;;;;;;;;;15.63;100.00;98195.94;1678821;84;24952;-89
2022/09/12 07:23:20;;;;;;;;;;;;;;;15.57;100.00;98200.47;1678983;83;20267;-89
2022/09/12 07:25:55;;;;;;;;;;;;;;;15.53;100.00;98207.50;1675301;83;21111;-89
2022/09/12 07:28:23;;;;;;;;;;;;;;;15.53;100.00;98210.13;1675874;84;24517;-89
2022/09/12 07:30:49;;;;;;;;;;;;;;;15.46;100.00;98204.08;1664306;83;20396;-91
2022/09/12 07:33:16;;;;;;;;;;;;;;;15.43;100.00;98212.29;1664571;85;25014;-89
2022/09/12 07:35:42;;;;;;;;;;;;;;;15.47;100.00;98218.09;1695296;83;22166;-89
2022/09/12 07:38:10;;;;;;;;;;;;;;;15.53;100.00;98220.69;1685917;83;20805;-89
2022/09/12 07:40:36;;;;;;;;;;;;;;;15.58;100.00;98219.28;1683759;83;24582;-89
2022/09/12 07:43:02;;;;;;;;;;;;;;;15.61;100.00;98224.73;1694905;83;20786;-89
2022/09/12 07:45:28;;;;;;;;;;;;;;;15.56;100.00;98221.22;1686223;83;20782;-89
2022/09/12 07:47:54;;;;;;;;;;;;;;;15.60;100.00;98223.10;1688870;83;21935;-89
2022/09/12 07:50:26;;;;;;;;;;;;;;;15.64;100.00;98232.38;1681049;83;26038;-89
2022/09/12 07:52:53;;;;;;;;;;;;;;;15.64;100.00;98221.83;1688582;83;24658;-89
2022/09/12 07:55:20;;;;;;;;;;;;;;;15.64;100.00;98225.79;1689326;83;20522;-89
2022/09/12 07:57:54;;;;;;;;;;;;;;;15.74;100.00;98223.94;1681638;83;25043;-89
2022/09/12 08:00:20;;;;;;;;;;;;;;;15.66;100.00;98227.78;1677125;85;22607;-89
2022/09/12 08:02:50;;;;;;;;;;;;;;;15.57;100.00;98225.52;1668846;85;26029;-89
2022/09/12 08:05:17;;;;;;;;;;;;;;;15.57;100.00;98229.97;1674311;84;25100;-89
2022/09/12 08:07:43;;;;;;;;;;;;;;;15.62;100.00;98226.41;1670232;84;20182;-89
2022/09/12 08:10:15;;;;;;;;;;;;;;;15.73;100.00;98227.55;1665484;85;20720;-89
2022/09/12 08:12:43;;;;;;;;;;;;;;;15.94;100.00;98227.33;1667830;85;22151;-87
2022/09/12 08:15:12;;;;;;;;;;;;;;;16.18;100.00;98231.59;1677414;84;26243;-88
2022/09/12 08:17:44;;;;;;;;;;;;;;;16.25;100.00;98224.27;1670000;84;24634;-89
2022/09/12 08:20:12;;;;;;;;;;;;;;;16.16;100.00;98225.63;1666853;85;20496;-89
2022/09/12 08:22:39;;;;;;;;;;;;;;;16.23;100.00;98226.70;1672282;85;25202;-88
2022/09/12 08:25:13;;;;;;;;;;;;;;;16.28;100.00;98228.41;1667586;84;21951;-89
2022/09/12 08:27:39;;;;;;;;;;;;;;;16.29;100.00;98238.84;1657430;85;26141;-89
2022/09/12 08:30:05;;;;;;;;;;;;;;;16.28;100.00;98235.84;1674528;84;24671;-89
2022/09/12 08:32:35;;;;;;;;;;;;;;;16.39;100.00;98236.12;1674774;84;20190;-89
2022/09/12 08:35:14;;;;;;;;;;;;;;;16.43;100.00;98235.33;1676695;84;25704;-88
2022/09/12 08:37:47;;;;;;;;;;;;;;;16.55;100.00;98231.51;1678976;84;22081;-88
2022/09/12 08:40:23;;;;;;;;;;;;;;;16.61;100.00;98229.62;1674627;84;26795;-89
2022/09/12 08:43:03;;;;;;;;;;;;;;;16.55;100.00;98219.63;1677793;84;24276;-89
2022/09/12 08:45:32;;;;;;;;;;;;;;;16.58;100.00;98233.34;1673695;85;20256;-89
2022/09/12 08:48:04;;;;;;;;;;;;;;;16.53;100.00;98228.20;1676618;84;25151;-89
2022/09/12 08:50:31;;;;;;;;;;;;;;;16.56;100.00;98233.17;1677837;84;21975;-89
2022/09/12 08:53:01;;;;;;;;;;;;;;;16.60;100.00;98231.92;1679137;85;26133;-89
2022/09/12 08:55:43;;;;;;;;;;;;;;;16.67;100.00;98236.47;1665717;85;24431;-89
2022/09/12 08:58:15;;;;;;;;;;;;;;;16.63;100.00;98231.16;1674162;85;20326;-89
2022/09/12 09:00:43;;;;;;;;;;;;;;;16.68;100.00;98226.25;1699999;83;25040;-88
2022/09/12 09:03:27;;;;;;;;;;;;;;;16.80;100.00;98226.02;1679073;84;22074;-89
2022/09/12 09:06:00;;;;;;;;;;;;;;;16.90;100.00;98228.09;1701251;83;26132;-88
2022/09/12 09:08:46;;;;;;;;;;;;;;;16.94;100.00;98226.80;1676158;84;24448;-88
2022/09/12 09:11:23;;;;;;;;;;;;;;;16.81;100.00;98227.66;1677728;84;20222;-88
2022/09/12 09:16:55;;;;;;;;;;;;;;;16.85;100.00;98223.75;1679885;84;22162;-88
2022/09/12 09:19:22;;;;;;;;;;;;;;;16.88;100.00;98227.41;1681031;84;26134;-88
2022/09/12 09:22:00;;;;;;;;;;;;;;;16.84;100.00;98222.92;1680319;84;25385;-88
2022/09/12 09:24:27;;;;;;;;;;;;;;;16.76;100.00;98230.75;1677345;83;20223;-89
2022/09/12 09:27:00;;;;;;;;;;;;;;;16.84;100.00;98228.20;1674160;84;25786;-88
2022/09/12 09:29:28;;;;;;;;;;;;;;;16.96;100.00;98229.64;1670995;84;22163;-88
2022/09/12 09:31:59;;;;;;;;;;;;;;;17.07;100.00;98228.58;1675172;85;26024;-89
2022/09/12 09:34:28;;;;;;;;;;;;;;;17.17;100.00;98231.13;1674525;85;24887;-88
2022/09/12 09:37:20;;;;;;;;;;;;;;;17.16;100.00;98228.97;1674623;85;20238;-88
2022/09/12 09:40:06;;;;;;;;;;;;;;;17.12;100.00;98225.81;1675059;85;25064;-88
2022/09/12 09:42:33;;;;;;;;;;;;;;;17.13;100.00;98231.41;1673535;85;22080;-88
2022/09/12 09:45:01;;;;;;;;;;;;;;;17.16;100.00;98234.26;1673353;85;26202;-88
2022/09/12 09:47:33;;;;;;;;;;;;;;;17.14;100.00;98229.11;1675310;85;24605;-88
2022/09/12 09:50:05;;;;;;;;;;;;;;;17.15;100.00;98228.62;1675170;85;20509;-88
2022/09/12 09:52:34;;;;;;;;;;;;;;;17.14;100.00;98226.47;1674814;85;25697;-88
2022/09/12 09:55:02;;;;;;;;;;;;;;;17.32;100.00;98219.00;1674576;85;22102;-88
2022/09/12 09:57:35;;;;;;;;;;;;;;;17.50;100.00;98219.80;1673042;85;25966;-88
2022/09/12 10:00:12;;;;;;;;;;;;;;;17.59;100.00;98217.52;1673204;85;24610;-88
2022/09/12 10:02:37;;;;;;;;;;;;;;;17.63;100.00;98220.22;1673153;85;20200;-88
2022/09/12 10:05:03;;;;;;;;;;;;;;;17.67;100.00;98222.08;1674277;85;25111;-87
2022/09/12 10:07:31;;;;;;;;;;;;;;;17.63;100.00;98222.03;1674580;85;21918;-88
2022/09/12 10:10:08;;;;;;;;;;;;;;;17.58;100.00;98219.83;1673647;85;26153;-87
2022/09/12 10:12:35;;;;;;;;;;;;;;;17.51;100.00;98219.62;1674113;84;24488;-88
2022/09/12 10:15:03;;;;;;;;;;;;;;;17.51;100.00;98221.46;1673330;85;20271;-88
2022/09/12 10:17:40;;;;;;;;;;;;;;;17.54;100.00;98217.16;1672834;85;24961;-88
2022/09/12 10:20:08;;;;;;;;;;;;;;;17.57;100.00;98217.67;1646823;86;22022;-88
2022/09/12 10:22:34;;;;;;;;;;;;;;;17.59;100.00;98212.23;1661289;85;26220;-87
2022/09/12 10:25:01;;;;;;;;;;;;;;;17.68;100.00;98210.48;1666315;85;24455;-88
2022/09/12 10:27:35;;;;;;;;;;;;;;;17.76;100.00;98220.64;1674727;85;20251;-87
2022/09/12 10:30:03;;;;;;;;;;;;;;;17.88;100.00;98219.88;1687553;82;25020;-89
2022/09/12 10:32:40;;;;;;;;;;;;;;;17.96;100.00;98219.89;1676309;84;22158;-88
2022/09/12 10:35:08;;;;;;;;;;;;;;;17.96;100.00;98219.41;1675753;84;25998;-88
2022/09/12 10:37:35;;;;;;;;;;;;;;;17.96;100.00;98219.41;1680184;84;24557;-88
2022/09/12 10:40:22;;;;;;;;;;;;;;;17.89;100.00;98213.59;1678218;84;20330;-90
2022/09/12 10:42:53;;;;;;;;;;;;;;;17.80;100.00;98214.03;1681192;84;25194;-89
2022/09/12 10:45:30;;;;;;;;;;;;;;;17.81;100.00;98213.05;1678540;84;21995;-88
2022/09/12 10:47:58;;;;;;;;;;;;;;;17.83;100.00;98211.58;1675324;84;25832;-89
2022/09/12 10:50:32;;;;;;;;;;;;;;;17.81;100.00;98218.34;1680834;84;24544;-89
2022/09/12 10:53:17;;;;;;;;;;;;;;;17.71;100.00;98222.09;1661892;84;20267;-88
2022/09/12 10:55:47;;;;;;;;;;;;;;;17.43;100.00;98230.16;1681328;84;24981;-89
2022/09/12 10:58:25;;;;;;;;;;;;;;;17.27;100.00;98218.14;1671677;84;22727;-89
2022/09/12 11:00:58;;;;;;;;;;;;;;;17.21;100.00;98213.95;1675838;84;21503;-88
2022/09/12 11:03:31;;;;;;;;;;;;;;;17.29;100.00;98214.84;1666551;84;24646;-89
2022/09/12 11:06:04;;;;;;;;;;;;;;;17.33;100.00;98214.05;1643397;85;20256;-89
2022/09/12 11:08:51;;;;;;;;;;;;;;;17.45;100.00;98206.20;1659240;85;25837;-88
2022/09/12 11:11:22;;;;;;;;;;;;;;;17.66;100.00;98208.50;1663661;84;22001;-89
2022/09/12 11:14:07;;;;;;;;;;;;;;;17.82;100.00;98203.30;1649568;86;26069;-88
2022/09/12 11:16:44;;;;;;;;;;;;;;;17.87;100.00;98201.83;1648317;87;24068;-89
2022/09/12 11:19:40;;;;;;;;;;;;;;;17.95;100.00;98205.83;1685636;84;20215;-89
2022/09/12 11:22:14;;;;;;;;;;;;;;;17.98;100.00;98204.20;1664535;85;25026;-88
2022/09/12 11:24:48;;;;;;;;;;;;;;;18.07;100.00;98205.55;1673267;85;22653;-89
2022/09/12 11:27:33;;;;;;;;;;;;;;;18.12;100.00;98204.56;1672616;84;26207;-89
2022/09/12 11:30:01;;;;;;;;;;;;;;;18.14;100.00;98202.11;1671229;84;24602;-89
2022/09/12 11:32:32;;;;;;;;;;;;;;;18.25;100.00;98200.98;1669254;85;20169;-89
2022/09/12 11:35:28;;;;;;;;;;;;;;;18.40;100.00;98208.63;1676450;84;25793;-89
2022/09/12 11:37:56;;;;;;;;;;;;;;;18.63;100.00;98217.67;1678442;83;22136;-89
2022/09/12 11:40:26;;;;;;;;;;;;;;;18.78;100.00;98209.41;1677102;84;26396;-89
2022/09/12 11:42:54;;;;;;;;;;;;;;;18.76;100.00;98212.70;1703435;83;24582;-88
2022/09/12 11:45:30;;;;;;;;;;;;;;;18.75;100.00;98214.22;1683776;84;20214;-89
2022/09/12 11:47:58;;;;;;;;;;;;;;;18.75;100.00;98212.39;1678660;84;25223;-88
2022/09/12 11:50:34;;;;;;;;;;;;;;;18.93;100.00;98217.52;1676617;84;21522;-89
2022/09/12 11:53:19;;;;;;;;;;;;;;;19.02;100.00;98217.05;1676984;84;26002;-89
2022/09/12 11:55:55;;;;;;;;;;;;;;;19.07;100.00;98224.02;1678828;83;25441;-89
2022/09/12 11:58:25;;;;;;;;;;;;;;;19.10;100.00;98224.99;1670370;84;20266;-89
2022/09/12 12:00:53;;;;;;;;;;;;;;;19.10;100.00;98224.99;1681717;84;25228;-89
2022/09/12 12:03:25;;;;;;;;;;;;;;;19.03;100.00;98224.02;1682663;84;22064;-89
2022/09/12 12:06:00;;;;;;;;;;;;;;;19.07;100.00;98225.34;1683145;84;26062;-89
2022/09/12 12:08:45;;;;;;;;;;;;;;;19.17;100.00;98222.02;1680418;84;24477;-89
2022/09/12 12:11:28;;;;;;;;;;;;;;;19.23;100.00;98224.01;1673549;85;20289;-89
2022/09/12 12:14:03;;;;;;;;;;;;;;;19.16;100.00;98226.98;1677217;84;25067;-89
2022/09/12 12:16:34;;;;;;;;;;;;;;;19.19;100.00;98214.23;1684135;84;23070;-89
2022/09/12 12:19:03;;;;;;;;;;;;;;;19.25;100.00;98219.88;1673243;85;26826;-88
2022/09/12 12:21:35;;;;;;;;;;;;;;;19.29;100.00;98209.25;1677395;85;24499;-88
2022/09/12 12:24:06;;;;;;;;;;;;;;;19.31;100.00;98215.23;1678214;84;20236;-89
2022/09/12 12:26:40;;;;;;;;;;;;;;;19.28;100.00;98212.89;1674797;84;25039;-89
2022/09/12 12:29:15;;;;;;;;;;;;;;;19.19;100.00;98210.75;1675918;84;22115;-88
2022/09/12 12:34:32;;;;;;;;;;;;;;;19.32;100.00;98202.27;1676461;83;23787;-89
2022/09/12 12:37:00;;;;;;;;;;;;;;;19.26;100.00;98203.77;1681181;84;20254;-88
2022/09/12 12:39:35;;;;;;;;;;;;;;;19.21;100.00;98197.63;1673653;84;25845;-89
2022/09/12 12:42:02;;;;;;;;;;;;;;;19.20;100.00;98199.95;1678913;84;22845;-89
2022/09/12 12:44:40;;;;;;;;;;;;;;;19.30;100.00;98190.52;1678876;83;25582;-89
2022/09/12 12:47:24;;;;;;;;;;;;;;;19.40;100.00;98184.52;1675930;83;25179;-89
2022/09/12 12:49:58;;;;;;;;;;;;;;;19.46;100.00;98189.69;1709614;81;20312;-88
2022/09/12 12:52:26;;;;;;;;;;;;;;;19.52;100.00;98189.84;1700633;81;25127;-89
2022/09/12 12:54:55;;;;;;;;;;;;;;;19.46;100.00;98187.03;1691515;83;21950;-89
2022/09/12 12:57:23;;;;;;;;;;;;;;;19.38;100.00;98182.52;1677345;84;26188;-88
2022/09/12 12:59:51;;;;;;;;;;;;;;;19.37;100.00;98185.34;1683272;84;24400;-89
2022/09/12 13:02:20;;;;;;;;;;;;;;;19.15;100.00;98183.70;1675585;85;20225;-89
2022/09/12 13:04:55;;;;;;;;;;;;;;;19.00;100.00;98184.55;1681663;84;25049;-88
2022/09/12 13:07:22;;;;;;;;;;;;;;;19.03;100.00;98181.58;1680669;85;22012;-89